createdAt,value
2023-01-19T00:01:08.914Z,2.10
2023-01-19T00:03:37.000Z,1.70
2023-01-19T00:06:07.490Z,1.90
2023-01-19T00:08:35.601Z,1.80
2023-01-19T00:11:02.657Z,1.30
2023-01-19T00:13:29.611Z,1.90
2023-01-19T00:15:56.673Z,1.90
2023-01-19T00:18:23.657Z,1.80
2023-01-19T00:20:50.582Z,2.00
2023-01-19T00:23:17.553Z,1.90
2023-01-19T00:25:44.529Z,1.70
2023-01-19T00:28:12.051Z,1.70
2023-01-19T00:30:39.405Z,1.90
2023-01-19T00:33:06.384Z,1.90
2023-01-19T00:35:33.914Z,1.60
2023-01-19T00:38:00.907Z,1.70
2023-01-19T00:40:27.850Z,1.70
2023-01-19T00:42:54.995Z,1.60
2023-01-19T00:45:23.082Z,1.70
2023-01-19T00:47:54.785Z,1.80
2023-01-19T00:50:21.864Z,1.50
2023-01-19T00:52:48.771Z,1.60
2023-01-19T00:55:16.070Z,1.60
2023-01-19T00:57:43.157Z,1.70
2023-01-19T01:00:12.271Z,1.70
2023-01-19T01:02:40.076Z,1.70
2023-01-19T01:05:07.700Z,1.60
2023-01-19T01:07:41.225Z,1.50
2023-01-19T01:10:15.424Z,1.80
2023-01-19T01:12:56.168Z,1.60
2023-01-19T01:15:24.927Z,1.40
2023-01-19T01:17:53.399Z,1.50
2023-01-19T01:20:25.382Z,1.30
2023-01-19T01:22:52.822Z,1.60
2023-01-19T01:25:22.610Z,1.60
2023-01-19T01:27:50.731Z,1.30
2023-01-19T01:30:17.881Z,1.40
2023-01-19T01:32:44.861Z,1.30
2023-01-19T01:35:12.212Z,1.30
2023-01-19T01:37:39.146Z,1.30
2023-01-19T01:40:06.972Z,0.80
2023-01-19T01:42:34.222Z,1.30
2023-01-19T01:45:02.808Z,1.50
2023-01-19T01:47:34.769Z,1.50
2023-01-19T01:50:09.306Z,1.30
2023-01-19T01:52:37.572Z,1.40
2023-01-19T01:55:06.982Z,1.30
2023-01-19T01:57:38.675Z,1.50
2023-01-19T02:00:06.443Z,1.60
2023-01-19T02:02:55.316Z,1.20
2023-01-19T02:05:33.187Z,1.40
2023-01-19T02:08:24.592Z,1.50
2023-01-19T02:11:10.044Z,1.20
2023-01-19T02:13:39.031Z,1.50
2023-01-19T02:16:09.320Z,1.20
2023-01-19T02:18:36.669Z,1.30
2023-01-19T02:21:22.443Z,1.50
2023-01-19T02:23:50.538Z,1.40
2023-01-19T02:26:28.590Z,1.60
2023-01-19T02:28:58.257Z,1.40
2023-01-19T02:31:25.757Z,1.20
2023-01-19T02:33:52.840Z,1.30
2023-01-19T02:36:25.895Z,1.10
2023-01-19T02:38:56.262Z,1.30
2023-01-19T02:41:25.285Z,1.10
2023-01-19T02:43:52.188Z,1.00
2023-01-19T02:46:19.306Z,1.00
2023-01-19T02:48:46.261Z,1.20
2023-01-19T02:51:23.196Z,1.20
2023-01-19T02:54:17.484Z,1.20
2023-01-19T02:56:56.776Z,1.10
2023-01-19T02:59:38.905Z,1.30
2023-01-19T03:02:11.824Z,0.90
2023-01-19T03:04:38.931Z,1.10
2023-01-19T03:07:28.796Z,1.20
2023-01-19T03:10:14.910Z,1.00
2023-01-19T03:13:12.503Z,0.90
2023-01-19T03:15:47.930Z,1.00
2023-01-19T03:18:16.076Z,1.20
2023-01-19T03:20:43.143Z,1.10
2023-01-19T03:23:11.605Z,0.90
2023-01-19T03:25:40.758Z,1.00
2023-01-19T03:28:07.793Z,1.00
2023-01-19T03:30:40.652Z,1.00
2023-01-19T03:33:20.996Z,0.90
2023-01-19T03:35:49.705Z,0.90
2023-01-19T03:38:18.896Z,1.10
2023-01-19T03:40:45.861Z,1.10
2023-01-19T03:43:13.168Z,1.10
2023-01-19T03:45:40.189Z,0.90
2023-01-19T03:48:07.375Z,0.80
2023-01-19T03:50:34.327Z,1.00
2023-01-19T03:53:11.608Z,0.90
2023-01-19T03:55:39.814Z,0.80
2023-01-19T03:58:06.841Z,0.80
2023-01-19T04:00:34.014Z,1.00
2023-01-19T04:03:01.152Z,0.90
2023-01-19T04:05:29.450Z,0.70
2023-01-19T04:07:56.434Z,0.70
2023-01-19T04:10:23.615Z,0.80
2023-01-19T04:12:50.551Z,0.80
2023-01-19T04:15:18.721Z,0.80
2023-01-19T04:17:45.716Z,0.90
2023-01-19T04:20:12.831Z,0.50
2023-01-19T04:22:40.010Z,0.80
2023-01-19T04:25:07.780Z,0.90
2023-01-19T04:27:35.269Z,0.70
2023-01-19T04:30:03.666Z,0.70
2023-01-19T04:32:31.032Z,0.70
2023-01-19T04:34:57.980Z,0.90
2023-01-19T04:37:24.935Z,1.10
2023-01-19T04:39:51.910Z,0.90
2023-01-19T04:42:18.849Z,0.90
2023-01-19T04:44:46.011Z,0.80
2023-01-19T04:47:12.977Z,0.90
2023-01-19T04:49:40.434Z,0.80
2023-01-19T04:52:07.383Z,0.80
2023-01-19T04:54:34.290Z,1.10
2023-01-19T04:57:01.243Z,0.90
2023-01-19T04:59:28.158Z,1.10
2023-01-19T05:01:56.109Z,0.50
2023-01-19T05:04:23.737Z,0.90
2023-01-19T05:06:51.692Z,0.90
2023-01-19T05:09:18.617Z,0.80
2023-01-19T05:11:45.529Z,0.40
2023-01-19T05:14:12.477Z,0.90
2023-01-19T05:16:39.391Z,0.80
2023-01-19T05:19:06.331Z,1.10
2023-01-19T05:21:33.265Z,0.90
2023-01-19T05:24:00.257Z,1.00
2023-01-19T05:26:27.201Z,1.00
2023-01-19T05:28:54.258Z,0.90
2023-01-19T05:31:21.324Z,1.10
2023-01-19T05:33:49.128Z,0.40
2023-01-19T05:36:16.071Z,0.90
2023-01-19T05:38:43.072Z,1.00
2023-01-19T05:41:10.094Z,0.40
2023-01-19T05:43:37.020Z,0.80
2023-01-19T05:46:05.362Z,0.40
2023-01-19T05:48:32.422Z,0.70
2023-01-19T05:51:00.146Z,0.80
2023-01-19T05:53:27.664Z,0.90
2023-01-19T05:56:02.733Z,0.70
2023-01-19T05:58:29.733Z,0.90
2023-01-19T06:00:56.869Z,0.80
2023-01-19T06:03:24.594Z,0.80
2023-01-19T06:05:51.518Z,0.70
2023-01-19T06:08:18.465Z,0.80
2023-01-19T06:10:45.463Z,0.80
2023-01-19T06:13:12.505Z,0.80
2023-01-19T06:15:39.498Z,0.50
2023-01-19T06:18:06.549Z,0.60
2023-01-19T06:20:33.932Z,0.50
2023-01-19T06:23:01.003Z,0.30
2023-01-19T06:25:28.192Z,0.40
2023-01-19T06:27:55.165Z,0.60
2023-01-19T06:30:22.131Z,0.70
2023-01-19T06:32:49.186Z,0.30
2023-01-19T06:35:16.163Z,0.50
2023-01-19T06:37:43.089Z,0.70
2023-01-19T06:40:12.002Z,0.80
2023-01-19T06:42:39.803Z,0.50
2023-01-19T06:45:07.382Z,0.50
2023-01-19T06:47:34.498Z,0.60
2023-01-19T06:50:02.319Z,0.50
2023-01-19T06:52:29.229Z,0.40
2023-01-19T06:54:56.747Z,0.40
2023-01-19T06:57:25.881Z,0.50
2023-01-19T06:59:52.918Z,0.40
2023-01-19T07:02:26.411Z,0.50
2023-01-19T07:04:55.569Z,-0.10
2023-01-19T07:07:22.548Z,0.30
2023-01-19T07:09:49.623Z,0.30
2023-01-19T07:12:21.152Z,0.30
2023-01-19T07:14:49.576Z,0.40
2023-01-19T07:17:16.605Z,0.30
2023-01-19T07:19:43.609Z,0.30
2023-01-19T07:22:10.528Z,0.00
2023-01-19T07:24:38.190Z,0.30
2023-01-19T07:27:05.515Z,0.20
2023-01-19T07:29:32.465Z,0.50
2023-01-19T07:31:59.538Z,0.10
2023-01-19T07:34:26.474Z,0.20
2023-01-19T07:36:53.371Z,0.40
2023-01-19T07:39:20.337Z,0.40
2023-01-19T07:41:48.801Z,0.00
2023-01-19T07:44:15.745Z,0.10
2023-01-19T07:46:43.429Z,0.10
2023-01-19T07:49:10.453Z,0.20
2023-01-19T07:51:37.455Z,0.30
2023-01-19T07:54:04.487Z,0.30
2023-01-19T07:56:33.910Z,0.20
2023-01-19T07:59:01.156Z,0.20
2023-01-19T08:01:28.265Z,0.20
2023-01-19T08:03:55.278Z,-0.30
2023-01-19T08:06:27.700Z,0.30
2023-01-19T08:08:54.660Z,0.30
2023-01-19T08:11:21.578Z,0.20
2023-01-19T08:13:48.507Z,0.30
2023-01-19T08:16:15.463Z,0.30
2023-01-19T08:18:42.707Z,-0.30
2023-01-19T08:21:09.653Z,0.10
2023-01-19T08:23:36.577Z,0.10
2023-01-19T08:26:17.163Z,0.30
2023-01-19T08:28:44.104Z,0.30
2023-01-19T08:31:20.193Z,0.40
2023-01-19T08:33:48.706Z,0.50
2023-01-19T08:36:15.641Z,0.50
2023-01-19T08:38:45.008Z,0.70
2023-01-19T08:41:12.354Z,0.50
2023-01-19T08:43:39.306Z,0.70
2023-01-19T08:46:06.415Z,0.80
2023-01-19T08:48:33.494Z,0.70
2023-01-19T08:51:00.590Z,1.00
2023-01-19T08:53:27.532Z,0.80
2023-01-19T08:55:57.516Z,0.80
2023-01-19T08:58:24.657Z,0.90
2023-01-19T09:00:52.770Z,0.80
2023-01-19T09:03:20.984Z,0.60
2023-01-19T09:05:48.053Z,0.60
2023-01-19T09:08:15.216Z,0.30
2023-01-19T09:10:49.649Z,0.50
2023-01-19T09:13:16.963Z,0.40
2023-01-19T09:15:44.035Z,0.80
2023-01-19T09:18:13.728Z,0.70
2023-01-19T09:20:42.708Z,0.90
2023-01-19T09:23:14.368Z,1.10
2023-01-19T09:25:44.044Z,1.20
2023-01-19T09:28:11.835Z,1.50
2023-01-19T09:30:39.875Z,1.70
2023-01-19T09:33:08.177Z,1.80
2023-01-19T09:35:35.171Z,2.00
2023-01-19T09:38:02.578Z,2.10
2023-01-19T09:40:30.051Z,2.30
2023-01-19T09:43:04.618Z,2.50
2023-01-19T09:45:36.116Z,2.50
2023-01-19T09:48:05.337Z,2.50
2023-01-19T09:50:34.233Z,2.40
2023-01-19T09:53:07.443Z,2.50
2023-01-19T09:55:34.407Z,2.50
2023-01-19T09:58:01.662Z,2.60
2023-01-19T10:00:28.931Z,2.60
2023-01-19T10:02:58.976Z,2.80
2023-01-19T10:05:32.795Z,3.10
2023-01-19T10:08:24.323Z,2.90
2023-01-19T10:10:55.440Z,3.10
2023-01-19T10:13:30.907Z,3.10
2023-01-19T10:16:15.011Z,3.40
2023-01-19T10:18:51.627Z,3.30
2023-01-19T10:21:29.154Z,3.60
2023-01-19T10:24:05.868Z,3.60
2023-01-19T10:26:36.362Z,3.70
2023-01-19T10:29:18.492Z,3.60
2023-01-19T10:31:45.430Z,3.70
2023-01-19T10:34:21.592Z,3.80
2023-01-19T10:36:50.644Z,3.60
2023-01-19T10:39:18.402Z,3.80
2023-01-19T10:41:51.201Z,3.60
2023-01-19T10:44:25.855Z,3.90
2023-01-19T10:46:54.538Z,3.80
2023-01-19T10:49:31.335Z,3.90
2023-01-19T10:51:58.998Z,4.00
2023-01-19T10:54:26.647Z,4.10
2023-01-19T10:57:04.046Z,4.30
2023-01-19T10:59:44.389Z,4.10
2023-01-19T11:02:28.834Z,4.10
2023-01-19T11:04:57.484Z,4.10
2023-01-19T11:07:32.549Z,4.50
2023-01-19T11:10:20.849Z,4.40
2023-01-19T11:13:02.015Z,4.20
2023-01-19T11:15:34.863Z,4.40
2023-01-19T11:18:03.966Z,4.30
2023-01-19T11:20:38.879Z,4.40
2023-01-19T11:23:28.530Z,4.50
2023-01-19T11:25:58.569Z,4.60
2023-01-19T11:28:27.329Z,4.70
2023-01-19T11:30:59.110Z,4.70
2023-01-19T11:33:33.977Z,4.80
2023-01-19T11:36:06.929Z,4.80
2023-01-19T11:38:40.538Z,5.00
2023-01-19T11:41:07.800Z,5.30
2023-01-19T11:43:48.225Z,5.10
2023-01-19T11:46:15.882Z,5.10
2023-01-19T11:48:43.854Z,5.00
2023-01-19T11:51:16.601Z,5.00
2023-01-19T11:53:44.817Z,4.80
2023-01-19T11:56:12.597Z,4.80
2023-01-19T11:58:41.624Z,5.10
2023-01-19T12:01:21.994Z,4.90
2023-01-19T12:04:15.035Z,5.20
2023-01-19T12:06:49.551Z,5.20
2023-01-19T12:09:38.974Z,5.30
2023-01-19T12:12:16.990Z,5.40
2023-01-19T12:14:47.777Z,5.20
2023-01-19T12:17:19.928Z,5.60
2023-01-19T12:19:54.899Z,5.40
2023-01-19T12:22:22.607Z,5.60
2023-01-19T12:25:03.199Z,5.60
2023-01-19T12:27:41.170Z,5.50
2023-01-19T12:30:27.398Z,5.50
2023-01-19T12:33:26.380Z,5.30
2023-01-19T12:36:01.017Z,5.50
2023-01-19T12:38:43.155Z,5.60
2023-01-19T12:41:29.083Z,5.60
2023-01-19T12:44:11.641Z,5.60
2023-01-19T12:46:46.108Z,5.80
2023-01-19T12:49:38.022Z,5.70
2023-01-19T12:52:40.553Z,5.50
2023-01-19T12:55:13.572Z,5.60
2023-01-19T12:57:49.641Z,5.70
2023-01-19T13:00:22.459Z,5.90
2023-01-19T13:02:50.096Z,5.90
2023-01-19T13:05:19.111Z,6.10
2023-01-19T13:08:05.477Z,6.20
2023-01-19T13:10:54.215Z,6.50
2023-01-19T13:13:24.758Z,6.40
2023-01-19T13:15:54.780Z,6.20
2023-01-19T13:18:27.725Z,5.90
2023-01-19T13:21:00.574Z,5.90
2023-01-19T13:23:28.909Z,6.00
2023-01-19T13:26:01.385Z,5.80
2023-01-19T13:28:35.603Z,6.10
2023-01-19T13:31:03.269Z,5.90
2023-01-19T13:33:34.389Z,5.90
2023-01-19T13:36:01.558Z,6.10
2023-01-19T13:38:28.832Z,5.90
2023-01-19T13:40:56.208Z,6.00
2023-01-19T13:43:27.836Z,6.10
2023-01-19T13:45:54.888Z,5.90
2023-01-19T13:48:23.026Z,5.80
2023-01-19T13:50:57.323Z,5.80
2023-01-19T13:53:24.493Z,5.80
2023-01-19T13:56:25.554Z,6.00
2023-01-19T13:58:59.599Z,6.10
2023-01-19T14:01:29.353Z,5.70
2023-01-19T14:03:57.501Z,5.90
2023-01-19T14:06:38.894Z,5.70
2023-01-19T14:09:19.282Z,5.90
2023-01-19T14:12:05.571Z,5.80
2023-01-19T14:14:32.728Z,5.90
2023-01-19T14:16:59.777Z,5.90
2023-01-19T14:19:27.041Z,5.90
2023-01-19T14:22:02.228Z,5.70
2023-01-19T14:24:32.034Z,5.70
2023-01-19T14:27:22.695Z,5.90
2023-01-19T14:29:50.743Z,5.80
2023-01-19T14:32:22.548Z,5.70
2023-01-19T14:35:13.649Z,5.80
2023-01-19T14:37:47.832Z,5.80
2023-01-19T14:40:19.579Z,5.50
2023-01-19T14:42:49.942Z,5.90
2023-01-19T14:45:21.436Z,5.80
2023-01-19T14:47:59.616Z,5.90
2023-01-19T14:50:34.269Z,5.80
2023-01-19T14:53:14.103Z,6.10
2023-01-19T14:56:10.217Z,5.80
2023-01-19T14:58:37.265Z,5.80
2023-01-19T15:01:04.773Z,5.90
2023-01-19T15:03:44.891Z,5.80
2023-01-19T15:06:19.691Z,5.70
2023-01-19T15:08:47.080Z,5.90
2023-01-19T15:11:34.465Z,5.60
2023-01-19T15:14:01.672Z,5.70
2023-01-19T15:16:29.864Z,5.50
2023-01-19T15:18:56.858Z,5.60
2023-01-19T15:21:26.578Z,5.70
2023-01-19T15:23:58.424Z,5.60
2023-01-19T15:26:26.292Z,5.50
2023-01-19T15:28:53.334Z,5.40
2023-01-19T15:31:21.991Z,5.40
2023-01-19T15:33:49.326Z,5.30
2023-01-19T15:36:18.606Z,5.50
2023-01-19T15:38:46.211Z,5.30
2023-01-19T15:41:14.038Z,5.50
2023-01-19T15:43:41.063Z,5.20
2023-01-19T15:46:09.093Z,5.50
2023-01-19T15:48:36.080Z,5.40
2023-01-19T15:51:03.074Z,5.40
2023-01-19T15:53:30.642Z,5.30
2023-01-19T15:55:57.598Z,5.10
2023-01-19T15:58:24.847Z,5.20
2023-01-19T16:00:56.003Z,5.10
2023-01-19T16:03:23.835Z,5.10
2023-01-19T16:05:50.799Z,4.90
2023-01-19T16:08:17.911Z,5.20
2023-01-19T16:10:44.892Z,5.00
2023-01-19T16:13:12.030Z,4.80
2023-01-19T16:15:39.399Z,4.80
2023-01-19T16:18:06.562Z,4.90
2023-01-19T16:20:33.683Z,4.70
2023-01-19T16:23:14.599Z,4.60
2023-01-19T16:25:42.131Z,5.00
2023-01-19T16:28:09.241Z,4.60
2023-01-19T16:30:36.234Z,4.50
2023-01-19T16:33:03.281Z,4.60
2023-01-19T16:35:30.286Z,4.70
2023-01-19T16:37:57.242Z,4.40
2023-01-19T16:40:24.337Z,4.40
2023-01-19T16:42:51.280Z,4.40
2023-01-19T16:45:18.224Z,4.60
2023-01-19T16:47:50.536Z,4.30
2023-01-19T16:50:17.733Z,4.60
2023-01-19T16:52:45.078Z,4.10
2023-01-19T16:55:12.153Z,4.60
2023-01-19T16:57:39.209Z,4.30
2023-01-19T17:00:07.550Z,4.10
2023-01-19T17:02:34.573Z,4.10
2023-01-19T17:05:01.607Z,4.20
2023-01-19T17:07:28.763Z,4.10
2023-01-19T17:09:56.211Z,4.10
2023-01-19T17:12:23.204Z,4.00
2023-01-19T17:14:50.399Z,4.00
2023-01-19T17:17:17.471Z,3.90
2023-01-19T17:19:45.234Z,3.90
2023-01-19T17:22:13.562Z,4.00
2023-01-19T17:24:42.625Z,4.00
2023-01-19T17:27:10.268Z,3.70
2023-01-19T17:29:37.286Z,3.90
2023-01-19T17:32:04.594Z,3.90
2023-01-19T17:34:32.054Z,3.60
2023-01-19T17:37:03.085Z,3.80
2023-01-19T17:39:30.676Z,3.80
2023-01-19T17:41:57.807Z,3.50
2023-01-19T17:44:25.007Z,3.80
2023-01-19T17:46:52.004Z,3.80
2023-01-19T17:49:18.944Z,3.60
2023-01-19T17:51:46.192Z,3.60
2023-01-19T17:54:14.432Z,3.80
2023-01-19T17:56:41.765Z,3.60
2023-01-19T17:59:08.726Z,3.40
2023-01-19T18:01:39.749Z,3.30
2023-01-19T18:04:07.377Z,3.60
2023-01-19T18:06:34.474Z,3.30
2023-01-19T18:09:01.747Z,3.50
2023-01-19T18:11:29.023Z,3.40
2023-01-19T18:13:56.201Z,3.20
2023-01-19T18:16:27.444Z,3.20
2023-01-19T18:18:55.144Z,3.00
2023-01-19T18:21:22.917Z,3.00
2023-01-19T18:23:50.499Z,2.80
2023-01-19T18:26:22.124Z,2.70
2023-01-19T18:28:49.229Z,2.50
2023-01-19T18:31:18.660Z,2.40
2023-01-19T18:33:45.806Z,2.40
2023-01-19T18:36:12.695Z,2.10
2023-01-19T18:38:39.712Z,2.10
2023-01-19T18:41:28.965Z,2.20
2023-01-19T18:43:59.820Z,2.40
2023-01-19T18:46:27.583Z,2.40
2023-01-19T18:48:54.896Z,2.20
2023-01-19T18:51:21.822Z,2.20
2023-01-19T18:53:48.959Z,2.30
2023-01-19T18:56:16.400Z,2.40
2023-01-19T18:58:43.481Z,2.40
2023-01-19T19:01:28.400Z,2.50
2023-01-19T19:03:56.416Z,2.50
2023-01-19T19:06:24.029Z,2.70
2023-01-19T19:08:51.403Z,2.30
2023-01-19T19:11:19.253Z,2.30
2023-01-19T19:13:46.205Z,2.20
2023-01-19T19:16:13.706Z,2.50
2023-01-19T19:18:40.902Z,2.30
2023-01-19T19:21:09.060Z,2.30
2023-01-19T19:23:36.812Z,2.50
2023-01-19T19:26:05.260Z,2.40
2023-01-19T19:28:33.333Z,2.40
2023-01-19T19:31:11.248Z,2.40
2023-01-19T19:33:38.763Z,2.60
2023-01-19T19:36:06.469Z,2.70
2023-01-19T19:38:33.710Z,2.50
2023-01-19T19:41:05.647Z,2.40
2023-01-19T19:43:33.142Z,2.70
2023-01-19T19:46:01.577Z,2.60
2023-01-19T19:48:28.624Z,2.60
2023-01-19T19:50:58.613Z,2.60
2023-01-19T19:53:27.304Z,2.60
2023-01-19T19:56:01.357Z,2.70
2023-01-19T19:58:28.574Z,2.70
2023-01-19T20:00:55.654Z,2.90
2023-01-19T20:03:22.757Z,2.80
2023-01-19T20:05:49.732Z,2.60
2023-01-19T20:08:16.752Z,2.50
2023-01-19T20:10:43.713Z,2.50
2023-01-19T20:13:10.788Z,2.40
2023-01-19T20:15:38.520Z,2.20
2023-01-19T20:18:06.366Z,2.10
2023-01-19T20:20:34.152Z,2.20
2023-01-19T20:23:01.884Z,2.20
2023-01-19T20:25:29.022Z,2.20
2023-01-19T20:27:57.052Z,2.10
2023-01-19T20:30:24.133Z,2.10
2023-01-19T20:32:51.520Z,2.00
2023-01-19T20:35:18.512Z,2.30
2023-01-19T20:37:45.653Z,2.30
2023-01-19T20:40:12.787Z,2.40
2023-01-19T20:42:41.399Z,2.20
2023-01-19T20:45:08.511Z,2.00
2023-01-19T20:47:35.541Z,2.40
2023-01-19T20:50:02.604Z,2.20
2023-01-19T20:52:29.616Z,2.30
2023-01-19T20:54:56.669Z,2.30
2023-01-19T20:57:23.740Z,2.10
2023-01-19T20:59:50.776Z,2.20
2023-01-19T21:02:17.887Z,2.20
2023-01-19T21:04:44.881Z,2.20
2023-01-19T21:07:11.865Z,2.10
2023-01-19T21:09:39.805Z,2.00
2023-01-19T21:12:08.174Z,2.20
2023-01-19T21:14:35.274Z,2.20
2023-01-19T21:17:02.476Z,2.10
2023-01-19T21:19:29.760Z,2.30
2023-01-19T21:21:57.314Z,2.20
2023-01-19T21:24:24.264Z,1.90
2023-01-19T21:26:51.181Z,1.90
2023-01-19T21:29:18.232Z,2.10
2023-01-19T21:31:45.215Z,1.90
2023-01-19T21:34:12.242Z,2.10
2023-01-19T21:36:39.242Z,1.80
2023-01-19T21:39:08.078Z,2.10
2023-01-19T21:41:35.994Z,1.30
2023-01-19T21:44:03.225Z,2.10
2023-01-19T21:46:30.622Z,1.80
2023-01-19T21:48:58.292Z,1.90
2023-01-19T21:51:25.295Z,2.00
2023-01-19T21:53:52.515Z,2.00
2023-01-19T21:56:19.466Z,1.70
2023-01-19T21:58:49.411Z,1.40
2023-01-19T22:01:16.557Z,1.60
2023-01-19T22:03:43.686Z,1.70
2023-01-19T22:06:14.237Z,1.90
2023-01-19T22:08:41.635Z,1.70
2023-01-19T22:11:09.842Z,1.80
2023-01-19T22:13:38.608Z,1.70
2023-01-19T22:16:10.888Z,1.80
2023-01-19T22:18:38.666Z,1.60
2023-01-19T22:21:13.505Z,1.60
2023-01-19T22:23:40.558Z,1.80
2023-01-19T22:26:07.765Z,1.80
2023-01-19T22:28:34.761Z,1.70
2023-01-19T22:31:05.665Z,1.80
2023-01-19T22:33:32.795Z,1.90
2023-01-19T22:36:29.876Z,1.80
2023-01-19T22:38:57.565Z,1.80
2023-01-19T22:41:32.833Z,1.70
2023-01-19T22:44:01.382Z,1.70
2023-01-19T22:46:30.082Z,1.60
2023-01-19T22:48:57.400Z,1.50
2023-01-19T22:51:24.793Z,1.70
2023-01-19T22:53:51.985Z,1.60
2023-01-19T22:56:20.313Z,1.60
2023-01-19T22:58:47.573Z,1.80
2023-01-19T23:01:16.632Z,1.90
2023-01-19T23:03:43.613Z,1.90
2023-01-19T23:06:12.300Z,2.00
2023-01-19T23:08:39.482Z,1.80
2023-01-19T23:11:07.777Z,1.90
2023-01-19T23:13:34.881Z,2.00
2023-01-19T23:16:02.136Z,1.90
2023-01-19T23:18:29.436Z,2.00
2023-01-19T23:20:56.334Z,2.00
2023-01-19T23:23:23.229Z,2.00
2023-01-19T23:25:50.232Z,2.00
2023-01-19T23:28:17.203Z,1.90
2023-01-19T23:30:44.187Z,2.00
2023-01-19T23:33:11.214Z,2.00
2023-01-19T23:35:38.170Z,1.90
2023-01-19T23:38:05.072Z,2.00
2023-01-19T23:40:31.996Z,1.90
2023-01-19T23:42:58.873Z,2.00
2023-01-19T23:45:26.005Z,1.90
2023-01-19T23:47:52.907Z,2.00
2023-01-19T23:50:19.900Z,2.10
2023-01-19T23:52:46.847Z,2.00
2023-01-19T23:55:14.034Z,2.40
2023-01-19T23:57:41.069Z,2.00
